Time;durP1;ratioP1;P1;durP2;ratioP2;P2;SDS_P1;SDS_P2;PMS_P1;PMS_P2;Temp;Humidity;BMP_temperature;BMP_pressure;BME280_temperature;BME280_humidity;BME280_pressure;Samples;Min_cycle;Max_cycle;Signal;HPM_P1;HPM_P2
2023/03/11 00:02:06;;;;;;;8.77;1.53;;;-0.10;99.90;;;;;;5066132;28;20033;-78
2023/03/11 00:04:32;;;;;;;7.13;1.40;;;0.00;99.90;;;;;;5069181;28;20479;-78
2023/03/11 00:06:58;;;;;;;9.83;1.20;;;-0.10;99.90;;;;;;5052502;28;20088;-78
2023/03/11 00:09:23;;;;;;;8.30;1.10;;;-0.10;99.90;;;;;;5067909;28;20048;-78
2023/03/11 00:11:49;;;;;;;8.47;0.93;;;-0.20;99.90;;;;;;5068855;28;20037;-78
2023/03/11 00:14:14;;;;;;;3.57;0.80;;;-0.20;99.90;;;;;;5067709;28;20084;-78
2023/03/11 00:16:40;;;;;;;7.77;1.27;;;-0.20;99.90;;;;;;5054672;28;20876;-77
2023/03/11 00:19:06;;;;;;;7.47;1.10;;;0.00;99.90;;;;;;5066717;28;20112;-78
2023/03/11 00:21:32;;;;;;;3.70;0.87;;;-0.20;99.90;;;;;;5068033;28;20040;-78
2023/03/11 00:24:00;;;;;;;5.70;0.90;;;-0.20;99.90;;;;;;5067434;28;20040;-78
2023/03/11 00:26:26;;;;;;;10.87;1.20;;;0.10;99.90;;;;;;5056747;28;20579;-78
2023/03/11 00:28:54;;;;;;;7.13;0.87;;;-0.20;99.90;;;;;;5064311;28;20052;-78
2023/03/11 00:31:20;;;;;;;6.60;0.93;;;-0.20;99.90;;;;;;5068857;28;20156;-78
2023/03/11 00:33:46;;;;;;;8.40;0.77;;;-0.10;99.90;;;;;;5067755;28;20048;-78
2023/03/11 00:36:24;;;;;;;6.00;1.00;;;0.20;99.90;;;;;;5059568;28;20045;-79
2023/03/11 00:38:50;;;;;;;9.50;0.93;;;-0.20;99.90;;;;;;5065796;28;20394;-79
2023/03/11 00:41:15;;;;;;;6.97;0.60;;;-0.20;99.90;;;;;;5050159;28;20350;-78
2023/03/11 00:43:41;;;;;;;6.87;0.80;;;-0.20;99.90;;;;;;5067926;28;20049;-79
2023/03/11 00:46:08;;;;;;;2.53;0.50;;;-0.20;99.90;;;;;;5081527;28;20559;-78
2023/03/11 00:48:33;;;;;;;3.80;0.50;;;-0.30;99.90;;;;;;5046498;28;20236;-78
2023/03/11 00:50:59;;;;;;;7.93;0.80;;;-0.30;99.90;;;;;;5035287;28;20378;-78
2023/03/11 00:53:25;;;;;;;7.37;0.60;;;-0.30;99.90;;;;;;5071220;28;20089;-78
2023/03/11 00:55:51;;;;;;;5.50;0.57;;;-0.30;99.90;;;;;;5072679;28;20051;-79
2023/03/11 00:58:17;;;;;;;5.03;0.63;;;-0.30;99.90;;;;;;5038348;28;20873;-78
2023/03/11 01:00:42;;;;;;;4.43;0.80;;;-0.30;99.90;;;;;;5072277;28;20177;-80
2023/03/11 01:03:08;;;;;;;3.60;0.40;;;-0.30;99.90;;;;;;5070418;28;20502;-79
2023/03/11 01:05:34;;;;;;;5.67;0.77;;;-0.10;99.90;;;;;;5071986;28;20386;-79
2023/03/11 01:08:00;;;;;;;3.80;0.50;;;-0.30;99.90;;;;;;5054551;28;20051;-79
2023/03/11 01:10:29;;;;;;;5.37;0.90;;;-0.30;99.90;;;;;;5071513;28;20040;-78
2023/03/11 01:12:55;;;;;;;4.17;0.70;;;0.10;99.90;;;;;;5052878;28;20040;-78
2023/03/11 01:15:24;;;;;;;6.67;0.50;;;-0.30;99.90;;;;;;5072399;28;20048;-79
2023/03/11 01:17:50;;;;;;;5.83;0.83;;;-0.30;99.90;;;;;;5055090;28;20126;-79
2023/03/11 01:20:16;;;;;;;7.20;0.73;;;-0.30;99.90;;;;;;5053600;28;20155;-79
2023/03/11 01:22:41;;;;;;;3.70;0.80;;;-0.30;99.90;;;;;;5052775;28;20090;-79
2023/03/11 01:25:09;;;;;;;9.37;1.30;;;-0.30;99.90;;;;;;5071956;28;20501;-78
2023/03/11 01:27:35;;;;;;;5.17;1.10;;;-0.30;99.90;;;;;;5055412;28;20044;-79
2023/03/11 01:30:01;;;;;;;4.13;0.80;;;-0.30;99.90;;;;;;5071251;28;20101;-78
2023/03/11 01:32:26;;;;;;;5.87;0.70;;;-0.30;99.90;;;;;;5082832;28;20075;-78
2023/03/11 01:34:52;;;;;;;4.77;0.60;;;0.70;99.90;;;;;;5073714;28;20514;-80
2023/03/11 01:37:19;;;;;;;6.90;0.67;;;-0.30;99.90;;;;;;5055995;28;20421;-79
2023/03/11 01:39:44;;;;;;;7.80;1.10;;;-0.30;99.90;;;;;;5053176;28;20115;-79
2023/03/11 01:42:10;;;;;;;5.27;1.00;;;-0.30;99.90;;;;;;5070631;28;20119;-78
2023/03/11 01:44:35;;;;;;;4.23;0.70;;;-0.30;99.90;;;;;;5059002;28;20381;-78
2023/03/11 01:47:01;;;;;;;4.90;0.93;;;-0.10;99.90;;;;;;5056261;28;20036;-79
2023/03/11 01:49:27;;;;;;;9.57;0.67;;;-0.30;99.90;;;;;;5052695;28;20060;-78
2023/03/11 01:51:56;;;;;;;6.63;0.77;;;-0.30;99.90;;;;;;5062161;28;20072;-79
2023/03/11 01:54:29;;;;;;;5.80;0.77;;;-0.30;99.90;;;;;;5051481;28;20467;-78
2023/03/11 01:56:56;;;;;;;5.17;0.73;;;0.30;99.90;;;;;;5055472;28;20398;-79
2023/03/11 01:59:25;;;;;;;3.67;0.53;;;0.30;99.90;;;;;;5070450;28;20036;-78
2023/03/11 02:02:18;;;;;;;4.43;0.77;;;-0.40;99.90;;;;;;5053569;28;20291;-78
2023/03/11 02:04:45;;;;;;;5.67;0.57;;;-0.40;99.90;;;;;;5070294;28;20049;-79
2023/03/11 02:07:12;;;;;;;8.37;0.70;;;-0.40;99.90;;;;;;5054411;28;20083;-78
2023/03/11 02:09:37;;;;;;;4.93;0.67;;;-0.50;99.90;;;;;;5070723;28;20140;-78
2023/03/11 02:12:05;;;;;;;3.60;0.60;;;-0.50;99.90;;;;;;5070513;28;20517;-78
2023/03/11 02:14:31;;;;;;;3.40;0.40;;;-0.50;99.90;;;;;;5070672;28;20055;-78
2023/03/11 02:16:58;;;;;;;5.07;0.60;;;-0.60;99.90;;;;;;5055064;28;20048;-78
2023/03/11 02:19:50;;;;;;;4.90;0.43;;;-0.60;99.90;;;;;;5069230;28;20432;-79
2023/03/11 02:22:16;;;;;;;8.60;0.77;;;-0.70;99.90;;;;;;5068834;28;20090;-79
2023/03/11 02:24:41;;;;;;;4.40;0.67;;;-0.70;99.90;;;;;;5071210;28;20041;-78
2023/03/11 02:27:10;;;;;;;4.37;0.53;;;-0.80;99.90;;;;;;5054664;28;20061;-78
2023/03/11 02:29:37;;;;;;;4.50;0.67;;;-0.60;99.90;;;;;;5069441;28;20052;-79
2023/03/11 02:32:07;;;;;;;5.63;0.73;;;-0.90;99.90;;;;;;5070565;28;20044;-77
2023/03/11 02:34:36;;;;;;;5.67;0.73;;;-0.90;99.90;;;;;;5053098;28;20084;-78
2023/03/11 02:37:07;;;;;;;2.40;0.60;;;-0.90;99.90;;;;;;5020195;28;20506;-79
2023/03/11 02:39:33;;;;;;;5.47;0.63;;;-0.90;99.90;;;;;;5052180;28;20094;-79
2023/03/11 02:42:01;;;;;;;6.10;0.70;;;-0.90;99.90;;;;;;5068886;28;20041;-79
2023/03/11 02:44:27;;;;;;;6.23;0.67;;;-0.90;99.90;;;;;;5057203;28;20539;-78
2023/03/11 02:46:53;;;;;;;13.27;0.70;;;-0.90;99.90;;;;;;5060434;28;20055;-79
2023/03/11 02:49:20;;;;;;;5.47;0.50;;;-0.90;99.90;;;;;;5069329;28;20052;-78
2023/03/11 02:51:46;;;;;;;7.63;0.63;;;-0.80;99.90;;;;;;5039333;28;20125;-78
2023/03/11 02:54:11;;;;;;;2.67;0.40;;;-0.90;99.90;;;;;;5066553;28;20441;-79
2023/03/11 02:56:37;;;;;;;4.23;0.70;;;-0.90;99.90;;;;;;5056126;28;20098;-78
2023/03/11 02:59:03;;;;;;;9.57;0.90;;;-0.70;99.90;;;;;;5049476;28;20045;-78
2023/03/11 03:01:29;;;;;;;5.13;0.60;;;-1.00;99.90;;;;;;5069594;28;20076;-77
2023/03/11 03:03:55;;;;;;;7.57;0.87;;;-1.10;99.90;;;;;;5051104;28;20079;-78
2023/03/11 03:06:20;;;;;;;5.57;0.53;;;-1.10;99.90;;;;;;5056728;28;20076;-78
2023/03/11 03:08:46;;;;;;;6.23;0.47;;;-1.20;99.90;;;;;;5064116;28;20474;-78
2023/03/11 03:11:12;;;;;;;5.40;0.60;;;-1.20;99.90;;;;;;5069291;28;20533;-78
2023/03/11 03:13:37;;;;;;;4.97;0.50;;;-1.30;99.90;;;;;;5068848;28;20041;-77
2023/03/11 03:16:03;;;;;;;8.07;0.77;;;-1.30;99.90;;;;;;5069765;28;20378;-77
2023/03/11 03:18:29;;;;;;;4.13;0.60;;;-1.60;99.90;;;;;;5055045;28;20057;-77
2023/03/11 03:20:55;;;;;;;6.17;0.63;;;-1.40;99.90;;;;;;5068505;28;20064;-77
2023/03/11 03:23:21;;;;;;;2.87;0.53;;;-1.40;99.90;;;;;;5056015;28;20041;-77
2023/03/11 03:25:47;;;;;;;3.43;0.57;;;-1.50;99.90;;;;;;5069785;28;20044;-78
2023/03/11 03:28:13;;;;;;;3.67;0.67;;;-1.60;99.90;;;;;;5053474;28;20479;-78
2023/03/11 03:30:39;;;;;;;2.20;0.60;;;-1.60;99.90;;;;;;5051281;28;20082;-78
2023/03/11 03:33:06;;;;;;;6.53;0.93;;;-1.60;99.90;;;;;;5076004;28;20260;-77
2023/03/11 03:35:32;;;;;;;9.27;1.00;;;-1.70;99.90;;;;;;5051333;28;20041;-78
2023/03/11 03:37:59;;;;;;;6.67;0.90;;;-1.70;99.90;;;;;;5053843;28;20071;-77
2023/03/11 03:40:24;;;;;;;7.37;1.00;;;-1.70;99.90;;;;;;5069091;28;20051;-77
2023/03/11 03:42:50;;;;;;;7.17;0.80;;;-1.00;99.90;;;;;;5068476;28;20044;-77
2023/03/11 03:45:16;;;;;;;4.53;0.90;;;-1.50;99.90;;;;;;5082378;28;20051;-77
2023/03/11 03:47:41;;;;;;;6.30;0.80;;;-1.70;99.90;;;;;;5057479;28;20049;-77
2023/03/11 03:50:09;;;;;;;7.47;0.90;;;-1.70;99.90;;;;;;5069220;28;20082;-78
2023/03/11 03:52:35;;;;;;;6.80;0.73;;;-1.70;99.90;;;;;;5048703;28;20056;-77
2023/03/11 03:55:02;;;;;;;6.03;0.73;;;-1.70;99.90;;;;;;5069207;28;20040;-77
2023/03/11 03:57:28;;;;;;;9.63;0.93;;;-1.70;99.90;;;;;;5035375;28;20051;-77
2023/03/11 03:59:54;;;;;;;5.80;0.97;;;-1.70;99.90;;;;;;5068805;28;20527;-77
2023/03/11 04:02:19;;;;;;;4.00;0.63;;;-1.80;99.90;;;;;;5068442;28;20083;-77
2023/03/11 04:04:45;;;;;;;8.27;0.87;;;-1.80;99.90;;;;;;5068888;28;20048;-77
2023/03/11 04:07:11;;;;;;;3.23;0.50;;;-1.80;99.90;;;;;;5035307;28;20040;-77
2023/03/11 04:09:42;;;;;;;3.60;0.50;;;-1.80;99.90;;;;;;5051356;28;20047;-77
2023/03/11 04:12:14;;;;;;;2.22;0.43;;;-1.80;99.90;;;;;;5049803;28;20040;-77
2023/03/11 04:14:41;;;;;;;4.00;0.50;;;-1.90;99.90;;;;;;5069253;28;20040;-77
2023/03/11 04:17:07;;;;;;;5.07;0.83;;;-1.80;99.90;;;;;;5052865;28;20047;-77
2023/03/11 04:19:33;;;;;;;8.97;0.80;;;-1.80;99.90;;;;;;5069014;28;20041;-77
2023/03/11 04:21:58;;;;;;;5.03;0.87;;;-1.80;99.90;;;;;;5071983;28;20052;-78
2023/03/11 04:24:24;;;;;;;6.80;0.80;;;-1.90;99.90;;;;;;5071537;28;20041;-77
2023/03/11 04:26:50;;;;;;;8.77;0.70;;;-1.90;99.90;;;;;;5058234;28;20409;-77
2023/03/11 04:29:15;;;;;;;6.27;0.90;;;-1.30;99.90;;;;;;5071674;28;20060;-77
2023/03/11 04:31:41;;;;;;;5.30;0.50;;;-1.80;99.90;;;;;;5078829;28;20070;-77
2023/03/11 04:34:07;;;;;;;7.27;0.50;;;-1.60;99.90;;;;;;5074578;28;20501;-77
2023/03/11 04:36:32;;;;;;;5.43;0.60;;;-1.90;99.90;;;;;;5041468;28;20451;-77
2023/03/11 04:38:58;;;;;;;3.93;1.00;;;-1.90;99.90;;;;;;5070125;28;20048;-77
2023/03/11 04:41:24;;;;;;;5.93;0.70;;;-1.80;99.90;;;;;;5072116;28;20056;-77
2023/03/11 04:43:49;;;;;;;4.57;0.63;;;-1.80;99.90;;;;;;5072522;28;20044;-77
2023/03/11 04:46:15;;;;;;;6.70;0.63;;;-1.80;99.90;;;;;;5079220;28;20089;-77
2023/03/11 04:48:41;;;;;;;5.67;0.67;;;-1.90;99.90;;;;;;5066620;28;20109;-76
2023/03/11 04:51:07;;;;;;;5.33;0.60;;;-1.80;99.90;;;;;;5069549;28;20040;-76
2023/03/11 04:53:33;;;;;;;3.17;0.73;;;-1.90;99.90;;;;;;5071347;28;20394;-77
2023/03/11 04:55:59;;;;;;;11.27;0.93;;;-1.90;99.90;;;;;;5072143;28;20040;-76
2023/03/11 04:58:24;;;;;;;3.90;0.40;;;-1.90;99.90;;;;;;5056012;28;20040;-76
2023/03/11 05:00:51;;;;;;;8.17;1.27;;;-1.90;99.90;;;;;;5072861;28;20103;-77
2023/03/11 05:03:17;;;;;;;4.77;1.00;;;-1.90;99.90;;;;;;5071050;28;20064;-76
2023/03/11 05:05:44;;;;;;;4.33;0.73;;;-1.90;99.90;;;;;;5071910;28;20054;-76
2023/03/11 05:08:10;;;;;;;6.20;0.80;;;-2.00;99.90;;;;;;5055102;28;20044;-76
2023/03/11 05:10:36;;;;;;;7.50;1.10;;;-2.10;99.90;;;;;;5071701;28;20093;-77
2023/03/11 05:13:01;;;;;;;3.87;0.90;;;-2.20;99.90;;;;;;5071280;28;20374;-75
2023/03/11 05:15:29;;;;;;;5.83;0.90;;;-2.30;99.90;;;;;;5071797;28;20040;-75
2023/03/11 05:17:55;;;;;;;5.20;0.80;;;-1.70;99.90;;;;;;5030832;28;20099;-76
2023/03/11 05:20:21;;;;;;;5.03;0.90;;;-2.30;99.90;;;;;;5072043;28;20080;-75
2023/03/11 05:22:47;;;;;;;8.97;0.90;;;-2.30;99.90;;;;;;5070115;28;20052;-75
2023/03/11 05:25:12;;;;;;;11.77;0.97;;;-1.60;99.90;;;;;;5071518;28;20076;-75
2023/03/11 05:27:38;;;;;;;3.67;0.90;;;-2.40;99.90;;;;;;5055810;28;20052;-75
2023/03/11 05:30:04;;;;;;;6.53;0.70;;;-2.40;99.90;;;;;;5069628;28;20094;-76
2023/03/11 05:32:30;;;;;;;5.53;1.20;;;-2.40;99.90;;;;;;5082765;28;20494;-75
2023/03/11 05:34:56;;;;;;;5.40;1.00;;;-2.50;99.90;;;;;;5072109;28;20222;-75
2023/03/11 05:37:21;;;;;;;8.07;0.93;;;-2.50;99.90;;;;;;5037931;28;20474;-76
2023/03/11 05:39:47;;;;;;;5.03;0.93;;;-2.40;99.90;;;;;;5071945;28;20098;-75
2023/03/11 05:42:13;;;;;;;8.33;1.03;;;-2.40;99.90;;;;;;5070075;28;20047;-75
2023/03/11 05:44:40;;;;;;;6.43;1.00;;;-2.40;99.90;;;;;;5070834;28;20088;-76
2023/03/11 05:47:05;;;;;;;7.27;0.90;;;-2.40;99.90;;;;;;5054873;28;20076;-76
2023/03/11 05:49:31;;;;;;;9.63;1.13;;;-2.30;99.90;;;;;;5071228;28;20079;-76
2023/03/11 05:51:57;;;;;;;7.97;1.30;;;-2.40;99.90;;;;;;5062857;28;20097;-76
2023/03/11 05:54:23;;;;;;;4.33;0.70;;;-2.30;99.90;;;;;;5033930;28;20131;-76
2023/03/11 05:56:48;;;;;;;11.33;1.20;;;-2.00;99.90;;;;;;5054628;28;20426;-77
2023/03/11 05:59:15;;;;;;;10.63;1.10;;;-2.40;99.90;;;;;;5051699;28;20127;-76
2023/03/11 06:01:42;;;;;;;9.83;1.53;;;-2.40;99.90;;;;;;5053392;28;20048;-76
2023/03/11 06:04:08;;;;;;;7.90;1.40;;;-2.30;99.90;;;;;;5070137;28;20586;-76
2023/03/11 06:06:33;;;;;;;6.40;0.93;;;-2.30;99.90;;;;;;5057722;28;20036;-76
2023/03/11 06:09:00;;;;;;;4.90;0.90;;;-2.30;99.90;;;;;;5067375;28;20043;-76
2023/03/11 06:11:26;;;;;;;4.77;0.97;;;-2.30;99.90;;;;;;5070747;28;20048;-76
2023/03/11 06:13:53;;;;;;;8.63;1.20;;;-2.30;99.90;;;;;;5069897;28;20109;-78
2023/03/11 06:16:20;;;;;;;10.83;1.30;;;-2.30;99.90;;;;;;5042212;28;20043;-76
2023/03/11 06:18:46;;;;;;;4.87;0.90;;;-2.50;99.90;;;;;;5049110;28;20044;-75
2023/03/11 06:21:17;;;;;;;6.80;1.40;;;-2.30;99.90;;;;;;5070080;28;20093;-76
2023/03/11 06:23:43;;;;;;;;;;;-2.30;99.90;;;;;;5070383;28;20040;-76
2023/03/11 06:26:12;;;;;;;10.00;1.03;;;-2.30;99.90;;;;;;5062976;28;19939;-76
2023/03/11 06:28:37;;;;;;;6.90;1.10;;;-2.20;99.90;;;;;;5063645;28;20044;-76
2023/03/11 06:31:13;;;;;;;8.57;1.33;;;-2.20;99.90;;;;;;5068140;28;20063;-76
2023/03/11 06:33:38;;;;;;;5.97;0.93;;;-2.20;99.90;;;;;;5058447;28;20056;-77
2023/03/11 06:36:05;;;;;;;6.67;1.20;;;-2.10;99.90;;;;;;5066502;28;20098;-78
2023/03/11 06:38:32;;;;;;;6.67;1.23;;;-2.00;99.90;;;;;;5022776;28;20299;-76
2023/03/11 06:41:02;;;;;;;4.57;0.90;;;-2.00;99.90;;;;;;5054863;28;20173;-76
2023/03/11 06:43:30;;;;;;;6.43;1.40;;;-2.00;99.90;;;;;;5050955;28;20517;-76
2023/03/11 06:45:56;;;;;;;8.60;1.10;;;-1.90;99.90;;;;;;5079860;28;20051;-76
2023/03/11 06:48:22;;;;;;;4.10;0.80;;;-1.80;99.90;;;;;;5053807;28;20359;-76
2023/03/11 06:50:58;;;;;;;9.50;1.23;;;-1.70;99.90;;;;;;5066047;28;20041;-76
2023/03/11 06:53:24;;;;;;;7.87;1.10;;;-1.30;99.90;;;;;;5061565;28;20048;-76
2023/03/11 06:56:08;;;;;;;9.03;1.07;;;-1.20;99.90;;;;;;5069958;28;20225;-76
2023/03/11 06:58:35;;;;;;;9.27;1.30;;;-1.40;99.90;;;;;;5061855;28;20124;-76
2023/03/11 07:01:03;;;;;;;4.57;1.07;;;-1.40;99.90;;;;;;5070105;28;20082;-76
2023/03/11 07:03:29;;;;;;;9.73;1.30;;;-1.50;99.90;;;;;;5051163;28;20604;-76
2023/03/11 07:05:56;;;;;;;4.30;1.00;;;-1.30;99.90;;;;;;5070072;28;20143;-76
2023/03/11 07:08:22;;;;;;;3.73;1.33;;;-1.40;99.90;;;;;;5052405;28;20044;-77
2023/03/11 07:11:09;;;;;;;4.53;1.27;;;-1.40;99.90;;;;;;5069282;28;20055;-76
2023/03/11 07:13:35;;;;;;;9.73;1.20;;;-1.40;99.90;;;;;;5055540;28;20036;-76
2023/03/11 07:16:06;;;;;;;8.90;1.20;;;-1.30;99.90;;;;;;5066459;28;20121;-76
2023/03/11 07:18:34;;;;;;;9.80;1.30;;;-1.20;99.90;;;;;;5028333;28;20375;-77
2023/03/11 07:21:04;;;;;;;6.27;1.60;;;-1.10;99.90;;;;;;5046220;28;20040;-77
2023/03/11 07:23:30;;;;;;;4.57;0.90;;;-1.20;99.90;;;;;;5038460;28;20040;-76
2023/03/11 07:25:56;;;;;;;6.43;1.10;;;-0.70;99.90;;;;;;5032822;28;20051;-78
2023/03/11 07:28:24;;;;;;;9.37;1.40;;;-1.00;99.90;;;;;;5043963;28;20044;-78
2023/03/11 07:30:50;;;;;;;6.67;1.20;;;-0.80;99.90;;;;;;5065886;28;20102;-77
2023/03/11 07:33:16;;;;;;;7.03;1.13;;;-1.40;99.90;;;;;;5047516;28;20432;-77
2023/03/11 07:35:42;;;;;;;10.17;1.33;;;-0.70;99.90;;;;;;5067781;28;20094;-77
2023/03/11 07:38:09;;;;;;;5.13;1.13;;;-0.50;99.90;;;;;;5053330;28;20044;-77
2023/03/11 07:40:35;;;;;;;4.77;1.13;;;0.20;99.90;;;;;;5063372;28;20524;-77
2023/03/11 07:43:00;;;;;;;7.17;1.60;;;-0.20;99.90;;;;;;5065012;28;20051;-78
2023/03/11 07:45:26;;;;;;;8.27;1.40;;;0.00;99.90;;;;;;5060366;28;20052;-77
2023/03/11 07:47:52;;;;;;;4.53;1.53;;;-0.20;99.90;;;;;;5047925;28;20053;-77
2023/03/11 07:50:20;;;;;;;7.57;1.33;;;-0.20;99.90;;;;;;5068796;28;20131;-76
2023/03/11 07:52:47;;;;;;;6.83;0.90;;;-0.10;99.90;;;;;;5068155;28;20044;-77
2023/03/11 07:55:13;;;;;;;10.40;1.50;;;-0.10;99.90;;;;;;5050487;28;20381;-78
2023/03/11 07:57:38;;;;;;;9.50;1.70;;;0.00;99.90;;;;;;5035138;28;20846;-77
2023/03/11 08:00:04;;;;;;;16.37;1.70;;;0.20;99.90;;;;;;5069515;28;20131;-77
2023/03/11 08:02:30;;;;;;;9.83;1.40;;;0.10;99.90;;;;;;5050575;28;20428;-77
2023/03/11 08:04:56;;;;;;;7.17;1.27;;;0.20;99.90;;;;;;5069320;28;20051;-77
2023/03/11 08:07:22;;;;;;;11.37;1.40;;;0.40;99.90;;;;;;5051425;28;20502;-77
2023/03/11 08:09:47;;;;;;;5.47;1.13;;;0.30;99.90;;;;;;5068744;28;20047;-77
2023/03/11 08:12:14;;;;;;;6.30;1.17;;;0.70;99.90;;;;;;5067870;28;20045;-77
2023/03/11 08:14:40;;;;;;;5.00;1.17;;;1.00;99.90;;;;;;5069022;28;20040;-77
2023/03/11 08:17:05;;;;;;;9.03;1.70;;;1.60;99.90;;;;;;5050883;28;20465;-78
2023/03/11 08:19:31;;;;;;;11.10;1.77;;;1.10;99.90;;;;;;5050790;28;20040;-77
2023/03/11 08:21:57;;;;;;;7.10;1.40;;;1.50;99.90;;;;;;5068000;28;20048;-77
2023/03/11 08:24:22;;;;;;;7.40;1.43;;;1.70;99.90;;;;;;5064943;28;20508;-78
2023/03/11 08:26:48;;;;;;;10.43;1.60;;;2.40;99.90;;;;;;5053639;28;20502;-78
2023/03/11 08:29:14;;;;;;;6.47;1.20;;;3.00;99.90;;;;;;5066860;28;20367;-78
2023/03/11 08:31:40;;;;;;;6.33;1.30;;;2.90;99.90;;;;;;5051027;28;20028;-78
2023/03/11 08:34:11;;;;;;;7.47;1.30;;;2.60;99.90;;;;;;5066904;28;20045;-78
2023/03/11 08:36:36;;;;;;;8.63;1.45;;;2.30;99.90;;;;;;5034410;28;20111;-79
2023/03/11 08:39:03;;;;;;;6.17;1.30;;;2.10;99.90;;;;;;5066192;28;20063;-78
2023/03/11 08:41:28;;;;;;;5.10;1.60;;;1.80;99.90;;;;;;5067951;28;20053;-79
2023/03/11 08:43:54;;;;;;;10.60;1.50;;;2.10;99.90;;;;;;5067857;28;20043;-79
2023/03/11 08:46:26;;;;;;;11.07;1.47;;;1.60;99.90;;;;;;5055461;28;20097;-80
2023/03/11 08:48:53;;;;;;;8.30;1.50;;;2.00;99.90;;;;;;5062888;28;20037;-78
2023/03/11 08:51:19;;;;;;;6.20;1.40;;;2.60;99.90;;;;;;5067072;28;20079;-78
2023/03/11 08:53:45;;;;;;;6.53;1.53;;;2.40;99.90;;;;;;5066007;28;20075;-78
2023/03/11 08:56:11;;;;;;;7.87;1.60;;;2.10;99.90;;;;;;5025192;28;20482;-80
2023/03/11 08:58:36;;;;;;;7.40;1.40;;;1.80;99.90;;;;;;5060185;28;20074;-79
2023/03/11 09:01:03;;;;;;;9.23;1.70;;;1.70;99.90;;;;;;5066757;28;20387;-79
2023/03/11 09:03:34;;;;;;;9.40;1.50;;;1.60;99.90;;;;;;5066458;28;20371;-79
2023/03/11 09:06:01;;;;;;;5.85;1.55;;;1.70;99.90;;;;;;5065435;28;20044;-79
2023/03/11 09:08:27;;;;;;;6.43;1.40;;;1.80;99.90;;;;;;5052500;28;20044;-78
2023/03/11 09:10:53;;;;;;;7.43;1.63;;;2.00;99.90;;;;;;5070638;28;20443;-79
2023/03/11 09:13:18;;;;;;;8.67;1.73;;;3.00;99.90;;;;;;5051120;28;20032;-79
2023/03/11 09:15:44;;;;;;;5.00;1.23;;;2.90;99.90;;;;;;5070364;28;20037;-79
2023/03/11 09:18:14;;;;;;;6.67;1.87;;;3.00;99.90;;;;;;5052983;28;20094;-79
2023/03/11 09:20:40;;;;;;;8.50;1.90;;;3.10;99.90;;;;;;5065350;28;20041;-79
2023/03/11 09:23:08;;;;;;;6.73;1.77;;;3.50;99.90;;;;;;5064482;28;20032;-79
2023/03/11 09:25:33;;;;;;;4.93;1.97;;;3.80;99.90;;;;;;5066884;28;20127;-80
2023/03/11 09:27:59;;;;;;;10.17;1.93;;;4.00;99.90;;;;;;5050922;28;20550;-79
2023/03/11 09:30:25;;;;;;;9.63;1.57;;;3.80;99.90;;;;;;5066366;28;20055;-78
2023/03/11 09:32:50;;;;;;;5.67;1.77;;;3.50;99.90;;;;;;5066716;28;20086;-78
2023/03/11 09:35:16;;;;;;;5.13;1.60;;;3.60;99.90;;;;;;5048333;28;20481;-79
2023/03/11 09:37:42;;;;;;;7.07;1.70;;;3.60;99.90;;;;;;5035036;28;20123;-79
2023/03/11 09:40:10;;;;;;;6.27;1.60;;;3.40;99.90;;;;;;5056764;28;20041;-78
2023/03/11 09:43:10;;;;;;;6.83;1.77;;;3.50;99.90;;;;;;5036541;28;20041;-79
2023/03/11 09:45:45;;;;;;;7.47;1.53;;;3.50;99.90;;;;;;5069051;28;20119;-79
2023/03/11 09:48:20;;;;;;;8.67;1.10;;;3.60;99.90;;;;;;5050325;28;20076;-79
2023/03/11 09:51:10;;;;;;;8.57;1.70;;;3.50;99.90;;;;;;5065467;28;20041;-79
2023/03/11 09:53:43;;;;;;;6.40;1.37;;;3.60;99.90;;;;;;5062898;28;20097;-78
2023/03/11 09:56:13;;;;;;;8.30;1.73;;;3.70;99.90;;;;;;5056033;28;20052;-79
2023/03/11 09:58:51;;;;;;;8.53;1.43;;;3.80;99.90;;;;;;5059342;28;20032;-78
2023/03/11 10:01:25;;;;;;;7.27;1.40;;;3.80;99.90;;;;;;5067281;28;20043;-79
2023/03/11 10:03:54;;;;;;;4.90;1.40;;;3.80;99.90;;;;;;5067195;28;20434;-78
2023/03/11 10:06:28;;;;;;;6.33;1.20;;;4.20;99.90;;;;;;5052796;28;20044;-79
2023/03/11 10:09:11;;;;;;;8.10;1.80;;;4.00;99.90;;;;;;5063500;28;20042;-79
2023/03/11 10:11:58;;;;;;;8.07;1.20;;;4.10;99.90;;;;;;5057309;28;20055;-78
2023/03/11 10:14:29;;;;;;;9.20;1.63;;;4.50;99.90;;;;;;5065556;28;20048;-78
2023/03/11 10:16:55;;;;;;;9.80;1.30;;;4.70;99.90;;;;;;5051100;28;20048;-78
2023/03/11 10:19:33;;;;;;;6.43;1.23;;;4.90;99.90;;;;;;5067006;28;20044;-78
2023/03/11 10:22:13;;;;;;;7.20;1.27;;;5.20;99.90;;;;;;5053029;28;20083;-78
2023/03/11 10:25:09;;;;;;;4.93;1.07;;;5.30;99.90;;;;;;5056463;28;20056;-79
2023/03/11 10:27:48;;;;;;;3.43;1.07;;;5.50;99.90;;;;;;5048736;28;20447;-79
2023/03/11 10:30:40;;;;;;;6.20;1.13;;;5.00;99.90;;;;;;5066074;28;20040;-78
2023/03/11 10:33:29;;;;;;;4.10;1.10;;;5.30;99.90;;;;;;5047216;28;20040;-78
2023/03/11 10:36:01;;;;;;;6.13;1.00;;;5.70;99.90;;;;;;5052754;28;20045;-78
2023/03/11 10:38:31;;;;;;;8.67;1.07;;;5.50;99.90;;;;;;5032798;28;20053;-79
2023/03/11 10:41:11;;;;;;;7.77;1.40;;;5.70;99.90;;;;;;5066506;28;20507;-79
2023/03/11 10:44:01;;;;;;;6.80;1.30;;;5.80;99.90;;;;;;5056647;28;20444;-79
2023/03/11 10:46:28;;;;;;;8.20;1.47;;;5.90;99.90;;;;;;5041565;28;20044;-79
2023/03/11 10:48:54;;;;;;;5.47;1.10;;;6.40;99.90;;;;;;5062342;28;20058;-78
2023/03/11 10:51:30;;;;;;;3.90;1.30;;;6.80;99.90;;;;;;5065827;28;20405;-79
2023/03/11 10:53:57;;;;;;;9.13;1.30;;;6.90;99.90;;;;;;5063586;28;20075;-78
2023/03/11 10:56:26;;;;;;;5.50;1.17;;;7.20;99.90;;;;;;5047509;28;20306;-78
2023/03/11 10:58:51;;;;;;;5.67;1.33;;;6.80;99.90;;;;;;5063166;28;20136;-79
2023/03/11 11:01:20;;;;;;;5.30;0.90;;;6.40;99.90;;;;;;5066378;28;20441;-79
2023/03/11 11:03:48;;;;;;;3.77;0.90;;;6.80;99.90;;;;;;5047143;28;20032;-79
2023/03/11 11:06:40;;;;;;;6.10;1.00;;;6.60;99.90;;;;;;5058013;28;20425;-79
2023/03/11 11:09:29;;;;;;;10.30;1.50;;;6.70;99.90;;;;;;5063065;28;20048;-79
2023/03/11 11:12:04;;;;;;;5.70;0.90;;;6.50;99.90;;;;;;5065537;28;20060;-79
2023/03/11 11:14:59;;;;;;;4.77;1.00;;;7.00;99.90;;;;;;5066105;28;20049;-79
2023/03/11 11:17:29;;;;;;;4.93;0.80;;;7.20;99.90;;;;;;5020849;28;20053;-79
2023/03/11 11:19:57;;;;;;;5.73;0.93;;;7.40;99.90;;;;;;5062967;28;20063;-79
2023/03/11 11:22:24;;;;;;;4.33;1.30;;;7.50;99.90;;;;;;5064443;28;20058;-79
2023/03/11 11:24:52;;;;;;;5.07;1.03;;;7.10;99.90;;;;;;5047351;28;20044;-79
2023/03/11 11:27:21;;;;;;;5.83;1.20;;;7.00;99.90;;;;;;5048571;28;20506;-78
2023/03/11 11:30:13;;;;;;;4.33;1.00;;;6.80;99.90;;;;;;5066282;28;20044;-80
2023/03/11 11:32:39;;;;;;;5.87;1.27;;;6.80;99.90;;;;;;5049077;28;20069;-79
2023/03/11 11:35:14;;;;;;;4.67;0.80;;;6.90;99.90;;;;;;5061339;28;20146;-78
2023/03/11 11:37:45;;;;;;;3.30;1.10;;;6.30;99.90;;;;;;5050932;28;20044;-78
2023/03/11 11:40:14;;;;;;;5.03;1.10;;;6.40;99.90;;;;;;5066489;28;20660;-78
2023/03/11 11:42:51;;;;;;;3.37;0.83;;;6.70;99.90;;;;;;5063681;28;20040;-78
2023/03/11 11:45:41;;;;;;;8.40;1.03;;;6.50;99.90;;;;;;5066349;28;20561;-79
2023/03/11 11:48:16;;;;;;;3.87;1.03;;;6.50;99.90;;;;;;5030119;28;20145;-78
2023/03/11 11:50:55;;;;;;;5.37;1.27;;;6.50;99.90;;;;;;5064092;28;20079;-79
2023/03/11 11:53:36;;;;;;;6.60;1.10;;;7.10;99.90;;;;;;5063483;28;20449;-78
2023/03/11 11:56:02;;;;;;;5.60;1.20;;;7.10;99.90;;;;;;5064971;28;20041;-78
2023/03/11 11:58:30;;;;;;;5.57;0.97;;;6.80;99.90;;;;;;5050020;28;20053;-79
2023/03/11 12:01:18;;;;;;;6.07;1.30;;;6.60;99.90;;;;;;5061359;28;20061;-79
2023/03/11 12:04:21;;;;;;;4.83;0.87;;;6.60;99.90;;;;;;5057544;28;20045;-78
2023/03/11 12:07:01;;;;;;;6.13;1.00;;;6.70;99.90;;;;;;5051015;28;20037;-78
2023/03/11 12:09:45;;;;;;;7.50;1.07;;;6.80;99.90;;;;;;5052481;28;20138;-78
2023/03/11 12:12:15;;;;;;;8.47;1.10;;;6.90;99.90;;;;;;5065307;28;20359;-78
2023/03/11 12:14:56;;;;;;;3.50;0.97;;;7.30;99.90;;;;;;5063722;28;20484;-78
2023/03/11 12:17:25;;;;;;;7.78;1.00;;;6.80;99.90;;;;;;5045716;28;20406;-78
2023/03/11 12:19:59;;;;;;;4.50;1.00;;;7.00;99.90;;;;;;5065157;28;20083;-78
2023/03/11 12:22:56;;;;;;;7.00;0.70;;;6.90;99.90;;;;;;5065100;28;20040;-76
2023/03/11 12:25:37;;;;;;;7.70;0.77;;;6.60;99.90;;;;;;5064996;28;20048;-78
2023/03/11 12:28:18;;;;;;;5.20;0.90;;;6.80;99.90;;;;;;5049442;28;20152;-78
2023/03/11 12:30:56;;;;;;;3.87;1.00;;;7.30;99.90;;;;;;5065230;28;20075;-78
2023/03/11 12:33:44;;;;;;;3.60;0.70;;;7.10;99.90;;;;;;5046052;28;20048;-79
2023/03/11 12:36:30;;;;;;;3.00;1.00;;;7.20;99.90;;;;;;5058061;28;20324;-78
2023/03/11 12:38:56;;;;;;;4.47;0.60;;;6.90;99.90;;;;;;5045966;28;20062;-78
2023/03/11 12:41:32;;;;;;;4.13;0.70;;;7.00;99.90;;;;;;5049646;28;20041;-79
2023/03/11 12:44:00;;;;;;;2.70;0.80;;;6.60;99.90;;;;;;5069046;28;20064;-77
2023/03/11 12:46:57;;;;;;;5.93;0.80;;;6.60;99.90;;;;;;5056814;28;20080;-77
2023/03/11 12:49:31;;;;;;;6.07;0.80;;;6.30;99.90;;;;;;5068812;28;20052;-76
2023/03/11 12:52:07;;;;;;;6.67;1.00;;;6.30;99.90;;;;;;5043900;28;20044;-76
2023/03/11 12:54:41;;;;;;;4.17;0.67;;;6.80;99.90;;;;;;5069909;28;20433;-76
2023/03/11 12:57:31;;;;;;;4.63;0.70;;;6.50;99.90;;;;;;5055781;28;20506;-76
2023/03/11 13:00:18;;;;;;;7.60;0.90;;;6.60;99.90;;;;;;5054084;28;20087;-75
2023/03/11 13:02:59;;;;;;;4.30;0.63;;;6.60;99.90;;;;;;5052804;28;20041;-76